createdAt,value
2019-01-15T00:00:03.737Z,25.80
2019-01-15T00:00:42.604Z,25.70
2019-01-15T00:01:21.294Z,25.70
2019-01-15T00:02:00.081Z,25.80
2019-01-15T00:02:38.807Z,25.90
2019-01-15T00:03:17.549Z,26.00
2019-01-15T00:03:56.317Z,26.10
2019-01-15T00:04:35.116Z,26.20
2019-01-15T00:05:13.834Z,26.20
2019-01-15T00:05:52.602Z,26.30
2019-01-15T00:06:31.320Z,26.30
2019-01-15T00:07:10.152Z,26.40
2019-01-15T00:07:48.808Z,26.50
2019-01-15T00:08:27.539Z,26.50
2019-01-15T00:09:06.860Z,26.60
2019-01-15T00:09:45.594Z,26.60
2019-01-15T00:10:24.427Z,26.70
2019-01-15T00:11:03.178Z,26.80
2019-01-15T00:11:41.893Z,26.80
2019-01-15T00:12:20.616Z,26.80
2019-01-15T00:12:59.419Z,26.90
2019-01-15T00:13:38.261Z,26.90
2019-01-15T00:14:16.994Z,27.00
2019-01-15T00:14:55.655Z,27.00
2019-01-15T00:15:34.323Z,27.00
2019-01-15T00:16:13.072Z,27.00
2019-01-15T00:16:51.741Z,27.10
2019-01-15T00:17:30.440Z,27.10
2019-01-15T00:18:09.241Z,27.10
2019-01-15T00:18:47.916Z,27.20
2019-01-15T00:19:26.645Z,27.20
2019-01-15T00:20:05.330Z,27.20
2019-01-15T00:20:44.072Z,27.20
2019-01-15T00:21:22.752Z,27.30
2019-01-15T00:22:01.395Z,27.30
2019-01-15T00:22:40.198Z,27.30
2019-01-15T00:23:19.009Z,27.30
2019-01-15T00:23:58.053Z,27.30
2019-01-15T00:24:37.794Z,27.30
2019-01-15T00:25:16.590Z,27.30
2019-01-15T00:25:55.319Z,27.30
2019-01-15T00:26:34.093Z,27.30
2019-01-15T00:27:12.769Z,27.30
2019-01-15T00:27:51.458Z,27.30
2019-01-15T00:28:30.061Z,27.30
2019-01-15T00:29:08.802Z,27.30
2019-01-15T00:29:47.504Z,27.30
2019-01-15T00:30:26.220Z,27.30
2019-01-15T00:31:05.309Z,27.30
2019-01-15T00:31:44.021Z,27.30
2019-01-15T00:32:22.723Z,27.30
2019-01-15T00:33:01.423Z,27.40
2019-01-15T00:33:40.190Z,27.40
2019-01-15T00:34:18.871Z,27.40
2019-01-15T00:34:57.643Z,27.40
2019-01-15T00:35:36.436Z,27.40
2019-01-15T00:36:15.210Z,27.40
2019-01-15T00:36:53.772Z,27.40
2019-01-15T00:37:32.540Z,27.40
2019-01-15T00:38:11.336Z,27.40
2019-01-15T00:38:50.026Z,27.40
2019-01-15T00:39:28.755Z,27.40
2019-01-15T00:40:08.705Z,27.40
2019-01-15T00:40:47.467Z,27.40
2019-01-15T00:41:26.268Z,27.40
2019-01-15T00:42:04.970Z,27.40
2019-01-15T00:42:43.722Z,27.40
2019-01-15T00:43:22.440Z,27.40
2019-01-15T00:44:01.163Z,27.40
2019-01-15T00:44:39.888Z,27.50
2019-01-15T00:45:18.540Z,27.50
2019-01-15T00:45:57.392Z,27.40
2019-01-15T00:46:36.096Z,27.40
2019-01-15T00:47:14.762Z,27.50
2019-01-15T00:47:53.515Z,27.40
2019-01-15T00:48:32.278Z,27.40
2019-01-15T00:49:11.024Z,27.50
2019-01-15T00:49:49.821Z,27.50
2019-01-15T00:50:28.567Z,27.50
2019-01-15T00:51:07.222Z,27.50
2019-01-15T00:51:45.845Z,27.50
2019-01-15T00:52:24.465Z,27.50
2019-01-15T00:53:03.341Z,27.50
2019-01-15T00:53:42.041Z,27.50
2019-01-15T00:54:20.712Z,27.50
2019-01-15T00:54:59.284Z,27.50
2019-01-15T00:55:37.968Z,27.50
2019-01-15T00:56:16.711Z,27.50
2019-01-15T00:56:55.383Z,27.50
2019-01-15T00:57:34.128Z,27.50
2019-01-15T00:58:12.849Z,27.50
2019-01-15T00:58:51.509Z,27.50
2019-01-15T00:59:30.287Z,27.50
2019-01-15T01:00:11.411Z,27.50
2019-01-15T01:00:50.151Z,27.50
2019-01-15T01:01:28.802Z,27.50
2019-01-15T01:02:07.468Z,27.50
2019-01-15T01:02:46.099Z,27.50
2019-01-15T01:03:24.772Z,27.50
2019-01-15T01:04:03.407Z,27.50
2019-01-15T01:04:42.171Z,27.60
2019-01-15T01:05:20.828Z,27.50
2019-01-15T01:05:59.492Z,27.60
2019-01-15T01:06:38.195Z,27.60
2019-01-15T01:07:16.905Z,27.60
2019-01-15T01:07:55.670Z,27.60
2019-01-15T01:08:34.440Z,27.60
2019-01-15T01:09:14.532Z,27.60
2019-01-15T01:09:53.181Z,27.60
2019-01-15T01:10:31.864Z,27.60
2019-01-15T01:11:10.672Z,27.60
2019-01-15T01:11:49.362Z,27.60
2019-01-15T01:12:28.119Z,27.60
2019-01-15T01:13:07.046Z,27.60
2019-01-15T01:13:45.674Z,27.60
2019-01-15T01:14:24.512Z,27.60
2019-01-15T01:15:03.228Z,27.60
2019-01-15T01:15:42.076Z,27.60
2019-01-15T01:16:20.720Z,27.60
2019-01-15T01:16:59.400Z,27.60
2019-01-15T01:17:38.084Z,27.60
2019-01-15T01:18:16.703Z,27.60
2019-01-15T01:18:55.498Z,27.60
2019-01-15T01:19:34.225Z,27.60
2019-01-15T01:20:14.415Z,27.60
2019-01-15T01:20:53.268Z,27.70
2019-01-15T01:21:31.902Z,27.70
2019-01-15T01:22:10.634Z,27.60
2019-01-15T01:22:49.399Z,27.70
2019-01-15T01:23:28.137Z,27.70
2019-01-15T01:24:07.071Z,27.60
2019-01-15T01:24:45.847Z,27.60
2019-01-15T01:25:24.533Z,27.70
2019-01-15T01:26:03.290Z,27.70
2019-01-15T01:26:41.907Z,27.70
2019-01-15T01:27:20.696Z,27.70
2019-01-15T01:27:59.644Z,27.70
2019-01-15T01:28:38.402Z,27.70
2019-01-15T01:29:17.095Z,27.70
2019-01-15T01:29:55.915Z,27.70
2019-01-15T01:30:34.607Z,27.70
2019-01-15T01:31:13.395Z,27.70
2019-01-15T01:31:52.141Z,27.70
2019-01-15T01:32:30.988Z,27.70
2019-01-15T01:33:09.724Z,27.70
2019-01-15T01:33:48.454Z,27.70
2019-01-15T01:34:27.259Z,27.70
2019-01-15T01:35:06.188Z,27.70
2019-01-15T01:35:44.850Z,27.70
2019-01-15T01:36:23.631Z,27.70
2019-01-15T01:37:02.394Z,27.70
2019-01-15T01:37:41.051Z,27.70
2019-01-15T01:38:19.866Z,27.80
2019-01-15T01:38:58.592Z,27.80
2019-01-15T01:39:37.235Z,27.80
2019-01-15T01:40:18.265Z,27.90
2019-01-15T01:40:56.942Z,28.00
2019-01-15T01:41:35.576Z,28.00
2019-01-15T01:42:14.995Z,28.00
2019-01-15T01:42:53.656Z,28.00
2019-01-15T01:43:32.457Z,28.00
2019-01-15T01:44:11.172Z,28.10
2019-01-15T01:44:49.909Z,28.10
2019-01-15T01:45:28.585Z,28.10
2019-01-15T01:46:07.365Z,28.10
2019-01-15T01:46:46.086Z,28.10
2019-01-15T01:47:24.836Z,28.10
2019-01-15T01:48:03.479Z,28.00
2019-01-15T01:48:42.131Z,28.00
2019-01-15T01:49:20.883Z,28.00
2019-01-15T01:49:59.672Z,28.00
2019-01-15T01:50:38.451Z,28.00
2019-01-15T01:51:17.069Z,28.00
2019-01-15T01:51:55.769Z,27.90
2019-01-15T01:52:34.528Z,27.90
2019-01-15T01:53:13.513Z,27.90
2019-01-15T01:53:52.128Z,27.90
2019-01-15T01:54:30.853Z,27.90
2019-01-15T01:55:10.084Z,27.90
2019-01-15T01:55:48.760Z,27.90
2019-01-15T01:56:27.547Z,27.90
2019-01-15T01:57:06.232Z,27.90
2019-01-15T01:57:45.006Z,27.90
2019-01-15T01:58:23.628Z,27.90
2019-01-15T01:59:02.355Z,27.90
2019-01-15T01:59:41.066Z,27.90
2019-01-15T02:00:23.919Z,27.90
2019-01-15T02:01:02.658Z,27.90
2019-01-15T02:01:41.273Z,27.90
2019-01-15T02:02:20.038Z,27.90
2019-01-15T02:02:58.900Z,27.90
2019-01-15T02:03:37.680Z,27.90
2019-01-15T02:04:16.398Z,27.90
2019-01-15T02:04:55.067Z,27.90
2019-01-15T02:05:33.689Z,27.90
2019-01-15T02:06:12.359Z,27.90
2019-01-15T02:06:51.216Z,27.90
2019-01-15T02:07:30.043Z,28.00
2019-01-15T02:08:08.641Z,27.90
2019-01-15T02:08:47.335Z,27.90
2019-01-15T02:09:25.981Z,27.90
2019-01-15T02:10:04.659Z,27.90
2019-01-15T02:10:43.390Z,27.90
2019-01-15T02:11:22.061Z,28.00
2019-01-15T02:12:00.880Z,28.00
2019-01-15T02:12:39.719Z,28.00
2019-01-15T02:13:18.516Z,28.00
2019-01-15T02:13:57.260Z,28.00
2019-01-15T02:14:35.944Z,28.00
2019-01-15T02:15:16.191Z,28.00
2019-01-15T02:15:54.971Z,28.00
2019-01-15T02:16:33.656Z,28.00
2019-01-15T02:17:12.325Z,28.00
2019-01-15T02:17:51.029Z,28.00
2019-01-15T02:18:29.677Z,28.00
2019-01-15T02:19:08.354Z,28.00
2019-01-15T02:19:47.060Z,28.00
2019-01-15T02:20:25.781Z,28.00
2019-01-15T02:21:04.512Z,28.00
2019-01-15T02:21:43.195Z,28.00
2019-01-15T02:22:21.856Z,28.00
2019-01-15T02:23:00.612Z,28.00
2019-01-15T02:23:39.422Z,28.00
2019-01-15T02:24:18.464Z,28.00
2019-01-15T02:24:57.206Z,28.00
2019-01-15T02:25:35.873Z,28.00
2019-01-15T02:26:14.924Z,28.00
2019-01-15T02:26:53.689Z,28.00
2019-01-15T02:27:32.604Z,28.00
2019-01-15T02:28:11.303Z,28.00
2019-01-15T02:28:49.990Z,28.00
2019-01-15T02:29:28.705Z,28.10
2019-01-15T02:30:07.681Z,28.10
2019-01-15T02:30:46.449Z,28.10
2019-01-15T02:31:25.246Z,28.10
2019-01-15T02:32:03.952Z,28.10
2019-01-15T02:32:42.752Z,28.10
2019-01-15T02:33:21.489Z,28.10
2019-01-15T02:34:00.346Z,28.10
2019-01-15T02:34:38.986Z,28.10
2019-01-15T02:35:17.673Z,28.10
2019-01-15T02:35:56.435Z,28.10
2019-01-15T02:36:35.051Z,28.10
2019-01-15T02:37:13.814Z,28.10
2019-01-15T02:37:52.491Z,28.10
2019-01-15T02:38:31.204Z,28.10
2019-01-15T02:39:11.436Z,28.10
2019-01-15T02:39:50.223Z,28.10
2019-01-15T02:40:28.843Z,28.10
2019-01-15T02:41:07.616Z,28.10
2019-01-15T02:41:46.454Z,28.20
2019-01-15T02:42:25.112Z,28.10
2019-01-15T02:43:03.806Z,28.10
2019-01-15T02:43:42.695Z,28.10
2019-01-15T02:44:21.297Z,28.20
2019-01-15T02:45:00.061Z,28.10
2019-01-15T02:45:38.874Z,28.20
2019-01-15T02:46:17.592Z,28.20
2019-01-15T02:46:56.297Z,28.20
2019-01-15T02:47:34.988Z,28.20
2019-01-15T02:48:14.613Z,28.20
2019-01-15T02:48:53.252Z,28.20
2019-01-15T02:49:32.034Z,28.20
2019-01-15T02:50:12.548Z,28.20
2019-01-15T02:50:51.459Z,28.20
2019-01-15T02:51:30.097Z,28.20
2019-01-15T02:52:08.893Z,28.20
2019-01-15T02:52:47.492Z,28.20
2019-01-15T02:53:26.160Z,28.20
2019-01-15T02:54:04.968Z,28.20
2019-01-15T02:54:43.678Z,28.20
2019-01-15T02:55:22.447Z,28.20
2019-01-15T02:56:01.228Z,28.20
2019-01-15T02:56:39.974Z,28.30
2019-01-15T02:57:18.678Z,28.30
2019-01-15T02:57:57.352Z,28.30
2019-01-15T02:58:36.072Z,28.30
2019-01-15T02:59:14.867Z,28.30
2019-01-15T02:59:53.546Z,28.30
2019-01-15T03:00:32.271Z,28.30
2019-01-15T03:01:11.032Z,28.30
2019-01-15T03:01:49.807Z,28.30
2019-01-15T03:02:28.519Z,28.30
2019-01-15T03:03:07.843Z,28.30
2019-01-15T03:03:46.522Z,28.30
2019-01-15T03:04:25.300Z,28.30
2019-01-15T03:05:04.046Z,28.30
2019-01-15T03:05:42.789Z,28.30
2019-01-15T03:06:21.504Z,28.30
2019-01-15T03:07:00.176Z,28.40
2019-01-15T03:07:38.953Z,28.30
2019-01-15T03:08:17.760Z,28.30
2019-01-15T03:08:56.594Z,28.30
2019-01-15T03:09:35.386Z,28.30
2019-01-15T03:10:16.268Z,28.30
2019-01-15T03:10:55.097Z,28.40
2019-01-15T03:11:33.714Z,28.40
2019-01-15T03:12:12.465Z,28.40
2019-01-15T03:12:55.673Z,28.40
2019-01-15T03:13:32.318Z,28.40
2019-01-15T03:14:11.119Z,28.40
2019-01-15T03:14:49.807Z,28.40
2019-01-15T03:15:28.803Z,28.40
2019-01-15T03:16:07.521Z,28.40
2019-01-15T03:16:46.150Z,28.40
2019-01-15T03:17:24.796Z,28.40
2019-01-15T03:18:03.518Z,28.40
2019-01-15T03:18:42.226Z,28.40
2019-01-15T03:19:20.850Z,28.40
2019-01-15T03:19:59.489Z,28.40
2019-01-15T03:20:38.196Z,28.40
2019-01-15T03:21:16.997Z,28.40
2019-01-15T03:21:55.724Z,28.50
2019-01-15T03:22:34.485Z,28.50
2019-01-15T03:23:13.230Z,28.50
2019-01-15T03:23:51.925Z,28.50
2019-01-15T03:24:30.658Z,28.50
2019-01-15T03:25:09.687Z,28.50
2019-01-15T03:25:48.399Z,28.50
2019-01-15T03:26:27.153Z,28.50
2019-01-15T03:27:05.862Z,28.50
2019-01-15T03:27:44.461Z,28.50
2019-01-15T03:28:23.267Z,28.50
2019-01-15T03:29:01.934Z,28.50
2019-01-15T03:29:40.729Z,28.50
2019-01-15T03:30:24.654Z,28.50
2019-01-15T03:31:03.387Z,28.50
2019-01-15T03:31:42.138Z,28.50
2019-01-15T03:32:20.933Z,28.50
2019-01-15T03:32:59.603Z,28.50
2019-01-15T03:33:38.260Z,28.50
2019-01-15T03:34:16.945Z,28.50
2019-01-15T03:34:55.798Z,28.50
2019-01-15T03:35:34.400Z,28.50
2019-01-15T03:36:13.257Z,28.50
2019-01-15T03:36:51.997Z,28.50
2019-01-15T03:37:30.666Z,28.50
2019-01-15T03:38:09.426Z,28.60
2019-01-15T03:38:48.254Z,28.60
2019-01-15T03:39:26.835Z,28.60
2019-01-15T03:40:05.641Z,28.60
2019-01-15T03:40:44.393Z,28.60
2019-01-15T03:41:23.144Z,28.60
2019-01-15T03:42:01.915Z,28.60
2019-01-15T03:42:40.746Z,28.60
2019-01-15T03:43:19.519Z,28.60
2019-01-15T03:43:58.145Z,28.60
2019-01-15T03:44:36.818Z,28.60
2019-01-15T03:45:15.594Z,28.60
2019-01-15T03:45:54.274Z,28.60
2019-01-15T03:46:32.912Z,28.60
2019-01-15T03:47:11.727Z,28.60
2019-01-15T03:47:50.451Z,28.60
2019-01-15T03:48:29.074Z,28.60
2019-01-15T03:49:07.793Z,28.60
2019-01-15T03:49:46.508Z,28.60
2019-01-15T03:50:25.230Z,28.70
2019-01-15T03:51:03.997Z,28.60
2019-01-15T03:51:42.666Z,28.70
2019-01-15T03:52:21.368Z,28.70
2019-01-15T03:53:00.090Z,28.70
2019-01-15T03:53:38.821Z,28.70
2019-01-15T03:54:17.600Z,28.70
2019-01-15T03:54:56.331Z,28.70
2019-01-15T03:55:35.026Z,28.70
2019-01-15T03:56:14.586Z,28.70
2019-01-15T03:56:53.527Z,28.70
2019-01-15T03:57:32.358Z,28.70
2019-01-15T03:58:11.082Z,28.70
2019-01-15T03:58:49.691Z,28.70
2019-01-15T03:59:28.371Z,28.70
2019-01-15T04:00:08.098Z,28.70
2019-01-15T04:00:46.771Z,28.70
2019-01-15T04:01:25.486Z,28.80
2019-01-15T04:02:04.349Z,28.70
2019-01-15T04:02:43.182Z,28.80
2019-01-15T04:03:21.853Z,28.80
2019-01-15T04:04:00.482Z,28.80
2019-01-15T04:04:39.276Z,28.80
2019-01-15T04:05:18.695Z,28.80
2019-01-15T04:05:57.319Z,28.80
2019-01-15T04:06:36.088Z,28.80
2019-01-15T04:07:14.908Z,28.80
2019-01-15T04:07:58.035Z,28.80
2019-01-15T04:08:36.658Z,28.80
2019-01-15T04:09:15.288Z,28.80
2019-01-15T04:09:54.088Z,28.90
2019-01-15T04:10:32.752Z,28.80
2019-01-15T04:11:11.534Z,28.80
2019-01-15T04:11:50.198Z,28.90
2019-01-15T04:12:28.877Z,28.90
2019-01-15T04:13:11.481Z,28.90
2019-01-15T04:13:47.605Z,28.90
2019-01-15T04:14:26.361Z,28.90
2019-01-15T04:15:05.509Z,28.90
2019-01-15T04:15:44.192Z,28.90
2019-01-15T04:16:22.970Z,28.90
2019-01-15T04:17:01.669Z,28.90
2019-01-15T04:17:40.340Z,28.90
2019-01-15T04:18:19.083Z,28.90
2019-01-15T04:18:57.845Z,28.90
2019-01-15T04:19:36.497Z,28.90
2019-01-15T04:20:16.881Z,28.90
2019-01-15T04:20:55.628Z,28.90
2019-01-15T04:21:34.313Z,29.00
2019-01-15T04:22:12.976Z,29.00
2019-01-15T04:22:51.680Z,29.00
2019-01-15T04:23:30.339Z,29.00
2019-01-15T04:24:09.295Z,29.00
2019-01-15T04:24:47.993Z,29.00
2019-01-15T04:25:26.797Z,29.00
2019-01-15T04:26:05.543Z,29.00
2019-01-15T04:26:44.291Z,29.00
2019-01-15T04:27:23.012Z,29.00
2019-01-15T04:28:01.745Z,29.00
2019-01-15T04:28:40.405Z,29.00
2019-01-15T04:29:19.139Z,29.00
2019-01-15T04:29:57.831Z,29.00
2019-01-15T04:30:36.475Z,29.00
2019-01-15T04:31:15.248Z,29.00
2019-01-15T04:31:53.918Z,29.00
2019-01-15T04:32:32.564Z,29.00
2019-01-15T04:33:11.247Z,29.00
2019-01-15T04:33:50.017Z,29.10
2019-01-15T04:34:29.036Z,29.10
2019-01-15T04:35:08.408Z,29.10
2019-01-15T04:35:47.065Z,29.10
2019-01-15T04:36:25.855Z,29.10
2019-01-15T04:37:04.610Z,29.10
2019-01-15T04:37:43.423Z,29.10
2019-01-15T04:38:22.126Z,29.10
2019-01-15T04:39:00.840Z,29.10
2019-01-15T04:39:39.586Z,29.10
2019-01-15T04:40:23.175Z,29.10
2019-01-15T04:41:01.825Z,29.10
2019-01-15T04:41:40.494Z,29.10
2019-01-15T04:42:19.135Z,29.10
2019-01-15T04:42:57.939Z,29.10
2019-01-15T04:43:36.551Z,29.10
2019-01-15T04:44:15.315Z,29.10
2019-01-15T04:44:53.911Z,29.20
2019-01-15T04:45:32.757Z,29.10
2019-01-15T04:46:11.420Z,29.20
2019-01-15T04:46:50.086Z,29.20
2019-01-15T04:47:28.786Z,29.20
2019-01-15T04:48:10.942Z,29.20
2019-01-15T04:48:54.989Z,29.20
2019-01-15T04:49:33.742Z,29.20
2019-01-15T04:50:12.428Z,29.20
2019-01-15T04:50:51.716Z,29.20
2019-01-15T04:51:30.416Z,29.20
2019-01-15T04:52:09.196Z,29.20
2019-01-15T04:52:51.317Z,29.20
2019-01-15T04:53:29.998Z,29.20
2019-01-15T04:54:08.740Z,29.20
2019-01-15T04:54:47.460Z,29.20
2019-01-15T04:55:26.127Z,29.20
2019-01-15T04:56:04.890Z,29.20
2019-01-15T04:56:43.747Z,29.30
2019-01-15T04:57:22.418Z,29.30
2019-01-15T04:58:01.123Z,29.20
2019-01-15T04:58:40.100Z,29.30
2019-01-15T04:59:18.995Z,29.30
2019-01-15T04:59:57.693Z,29.20
2019-01-15T05:00:36.528Z,29.30
2019-01-15T05:01:15.241Z,29.30
2019-01-15T05:01:54.015Z,29.30
2019-01-15T05:02:32.798Z,29.30
2019-01-15T05:03:14.702Z,29.30
2019-01-15T05:03:53.515Z,29.30
2019-01-15T05:04:32.257Z,29.30
2019-01-15T05:05:11.470Z,29.30
2019-01-15T05:05:50.063Z,29.30
2019-01-15T05:06:28.783Z,29.30
2019-01-15T05:07:07.514Z,29.30
2019-01-15T05:07:46.274Z,29.30
2019-01-15T05:08:24.965Z,29.30
2019-01-15T05:09:04.047Z,29.40
2019-01-15T05:09:42.799Z,29.40
2019-01-15T05:10:21.505Z,29.40
2019-01-15T05:11:00.168Z,29.40
2019-01-15T05:11:39.030Z,29.40
2019-01-15T05:12:17.811Z,29.40
2019-01-15T05:12:56.514Z,29.40
2019-01-15T05:13:35.303Z,29.40
2019-01-15T05:14:14.855Z,29.40
2019-01-15T05:14:53.681Z,29.40
2019-01-15T05:15:32.401Z,29.40
2019-01-15T05:16:11.148Z,29.40
2019-01-15T05:16:49.868Z,29.40
2019-01-15T05:17:28.630Z,29.40
2019-01-15T05:18:07.479Z,29.40
2019-01-15T05:18:46.244Z,29.40
2019-01-15T05:19:24.908Z,29.40
2019-01-15T05:20:03.570Z,29.40
2019-01-15T05:20:42.271Z,29.40
2019-01-15T05:21:20.989Z,29.40
2019-01-15T05:21:59.664Z,29.40
2019-01-15T05:22:38.447Z,29.40
2019-01-15T05:23:17.158Z,29.50
2019-01-15T05:23:55.898Z,29.50
2019-01-15T05:24:34.541Z,29.50
2019-01-15T05:25:15.908Z,29.50
2019-01-15T05:25:54.638Z,29.50
2019-01-15T05:26:33.352Z,29.50
2019-01-15T05:27:12.131Z,29.50
2019-01-15T05:27:50.843Z,29.50
2019-01-15T05:28:29.624Z,29.50
2019-01-15T05:29:08.402Z,29.50
2019-01-15T05:29:47.195Z,29.50
2019-01-15T05:30:30.298Z,29.50
2019-01-15T05:31:09.085Z,29.50
2019-01-15T05:31:47.755Z,29.50
2019-01-15T05:32:26.444Z,29.50
2019-01-15T05:33:05.116Z,29.50
2019-01-15T05:33:43.877Z,29.50
2019-01-15T05:34:22.585Z,29.50
2019-01-15T05:35:01.340Z,29.50
2019-01-15T05:35:40.028Z,29.50
2019-01-15T05:36:18.748Z,29.60
2019-01-15T05:36:57.377Z,29.60
2019-01-15T05:37:36.162Z,29.60
2019-01-15T05:38:14.721Z,29.60
2019-01-15T05:38:53.397Z,29.60
2019-01-15T05:39:32.088Z,29.60
2019-01-15T05:40:11.505Z,29.60
2019-01-15T05:40:50.306Z,29.60
2019-01-15T05:41:29.049Z,29.60
2019-01-15T05:42:07.755Z,29.60
2019-01-15T05:42:46.565Z,29.60
2019-01-15T05:43:25.358Z,29.60
2019-01-15T05:44:04.195Z,29.60
2019-01-15T05:44:42.881Z,29.60
2019-01-15T05:45:28.598Z,29.60
2019-01-15T05:46:07.245Z,29.60
2019-01-15T05:46:45.837Z,29.60
2019-01-15T05:47:26.089Z,29.70
2019-01-15T05:48:13.272Z,29.70
2019-01-15T05:48:52.149Z,29.70
2019-01-15T05:49:30.899Z,29.70
2019-01-15T05:50:11.674Z,29.70
2019-01-15T05:50:55.524Z,29.70
2019-01-15T05:51:37.247Z,29.70
2019-01-15T05:52:15.909Z,29.70
2019-01-15T05:52:54.655Z,29.70
2019-01-15T05:53:33.322Z,29.70
2019-01-15T05:54:12.043Z,29.70
2019-01-15T05:54:50.822Z,29.70
2019-01-15T05:55:29.593Z,29.70
2019-01-15T05:56:09.471Z,29.70
2019-01-15T05:56:48.397Z,29.70
2019-01-15T05:57:27.119Z,29.70
2019-01-15T05:58:05.829Z,29.70
2019-01-15T05:58:44.562Z,29.70
2019-01-15T05:59:23.244Z,29.70
2019-01-15T06:00:01.975Z,29.70
2019-01-15T06:00:40.722Z,29.70
2019-01-15T06:01:19.496Z,29.80
2019-01-15T06:01:58.263Z,29.70
2019-01-15T06:02:36.896Z,29.80
2019-01-15T06:03:15.709Z,29.80
2019-01-15T06:03:54.692Z,29.80
2019-01-15T06:04:33.342Z,29.80
2019-01-15T06:05:12.633Z,29.80
2019-01-15T06:05:51.223Z,29.80
2019-01-15T06:06:29.994Z,29.80
2019-01-15T06:07:08.656Z,29.80
2019-01-15T06:07:47.393Z,29.80
2019-01-15T06:08:26.196Z,29.80
2019-01-15T06:09:05.619Z,29.80
2019-01-15T06:09:44.385Z,29.80
2019-01-15T06:10:23.172Z,29.80
2019-01-15T06:11:01.889Z,29.80
2019-01-15T06:11:40.612Z,29.80
2019-01-15T06:12:19.239Z,29.80
2019-01-15T06:12:57.922Z,29.80
2019-01-15T06:13:42.610Z,29.90
2019-01-15T06:14:16.581Z,29.90
2019-01-15T06:14:55.259Z,29.90
2019-01-15T06:15:33.909Z,29.90
2019-01-15T06:16:12.889Z,29.90
2019-01-15T06:16:51.677Z,29.90
2019-01-15T06:17:30.303Z,29.90
2019-01-15T06:18:09.008Z,29.90
2019-01-15T06:18:47.767Z,29.90
2019-01-15T06:19:26.617Z,29.90
2019-01-15T06:20:05.257Z,29.90
2019-01-15T06:20:44.119Z,29.90
2019-01-15T06:21:22.759Z,29.90
2019-01-15T06:22:01.388Z,29.90
2019-01-15T06:22:40.089Z,29.90
2019-01-15T06:23:18.731Z,29.90
2019-01-15T06:23:57.434Z,29.90
2019-01-15T06:24:36.155Z,29.90
2019-01-15T06:25:15.006Z,29.90
2019-01-15T06:25:53.732Z,29.90
2019-01-15T06:26:32.460Z,29.90
2019-01-15T06:27:11.177Z,29.90
2019-01-15T06:27:49.846Z,29.90
2019-01-15T06:28:28.676Z,29.90
2019-01-15T06:29:07.310Z,29.90
2019-01-15T06:29:46.018Z,30.00
2019-01-15T06:30:25.017Z,29.90
2019-01-15T06:31:03.658Z,30.00
2019-01-15T06:31:42.430Z,30.00
2019-01-15T06:32:21.053Z,30.00
2019-01-15T06:32:59.787Z,29.90
2019-01-15T06:33:38.544Z,30.00
2019-01-15T06:34:17.310Z,30.00
2019-01-15T06:34:56.176Z,30.00
2019-01-15T06:35:34.932Z,30.00
2019-01-15T06:36:14.038Z,30.00
2019-01-15T06:36:52.848Z,30.00
2019-01-15T06:37:31.561Z,30.00
2019-01-15T06:38:10.332Z,30.00
2019-01-15T06:38:49.163Z,30.00
2019-01-15T06:39:27.768Z,30.00
2019-01-15T06:40:06.676Z,30.00
2019-01-15T06:40:45.424Z,30.00
2019-01-15T06:41:24.063Z,30.00
2019-01-15T06:42:02.939Z,30.00
2019-01-15T06:42:41.697Z,30.00
2019-01-15T06:43:20.428Z,30.00
2019-01-15T06:43:59.283Z,30.00
2019-01-15T06:44:37.951Z,30.10
2019-01-15T06:45:19.653Z,30.00
2019-01-15T06:45:58.328Z,30.00
2019-01-15T06:46:37.016Z,30.10
2019-01-15T06:47:15.695Z,30.10
2019-01-15T06:47:54.406Z,30.10
2019-01-15T06:48:33.148Z,30.10
2019-01-15T06:49:11.852Z,30.10
2019-01-15T06:49:50.539Z,30.10
2019-01-15T06:50:29.218Z,30.10
2019-01-15T06:51:08.023Z,30.10
2019-01-15T06:51:46.705Z,30.10
2019-01-15T06:52:25.374Z,30.10
2019-01-15T06:53:04.169Z,30.10
2019-01-15T06:53:42.857Z,30.10
2019-01-15T06:54:21.607Z,30.10
2019-01-15T06:55:00.296Z,30.10
2019-01-15T06:55:39.031Z,30.10
2019-01-15T06:56:17.691Z,30.10
2019-01-15T06:56:56.410Z,30.10
2019-01-15T06:57:35.085Z,30.10
2019-01-15T06:58:14.684Z,30.10
2019-01-15T06:58:53.319Z,30.10
2019-01-15T06:59:32.032Z,30.10
2019-01-15T07:00:15.249Z,30.10
2019-01-15T07:00:54.042Z,30.10
2019-01-15T07:01:32.787Z,30.10
2019-01-15T07:02:11.429Z,30.10
2019-01-15T07:02:50.169Z,30.10
2019-01-15T07:03:28.936Z,30.10
2019-01-15T07:04:07.732Z,30.20
2019-01-15T07:04:46.365Z,30.10
2019-01-15T07:05:25.346Z,30.10
2019-01-15T07:06:04.021Z,30.20
2019-01-15T07:06:42.717Z,30.10
2019-01-15T07:07:21.482Z,30.20
2019-01-15T07:08:00.168Z,30.20
2019-01-15T07:08:38.992Z,30.20
2019-01-15T07:09:17.651Z,30.20
2019-01-15T07:09:56.449Z,30.20
2019-01-15T07:10:40.129Z,30.20
2019-01-15T07:11:18.942Z,30.20
2019-01-15T07:11:57.631Z,30.20
2019-01-15T07:12:36.327Z,30.20
2019-01-15T07:13:15.058Z,30.20
2019-01-15T07:13:57.177Z,30.20
2019-01-15T07:14:33.939Z,30.20
2019-01-15T07:15:12.669Z,30.20
2019-01-15T07:15:52.771Z,30.20
2019-01-15T07:16:31.632Z,30.20
2019-01-15T07:17:10.380Z,30.20
2019-01-15T07:17:49.088Z,30.20
2019-01-15T07:18:28.027Z,30.20
2019-01-15T07:19:06.765Z,30.20
2019-01-15T07:19:45.484Z,30.20
2019-01-15T07:20:24.283Z,30.30
2019-01-15T07:21:02.998Z,30.20
2019-01-15T07:21:41.882Z,30.30
2019-01-15T07:22:20.531Z,30.30
2019-01-15T07:22:59.314Z,30.30
2019-01-15T07:23:38.149Z,30.20
2019-01-15T07:24:17.045Z,30.30
2019-01-15T07:24:55.763Z,30.30
2019-01-15T07:25:34.575Z,30.30
2019-01-15T07:26:13.271Z,30.30
2019-01-15T07:26:52.013Z,30.20
2019-01-15T07:27:30.689Z,30.30
2019-01-15T07:28:09.460Z,30.30
2019-01-15T07:28:48.129Z,30.20
2019-01-15T07:29:26.835Z,30.20
2019-01-15T07:30:05.508Z,30.30
2019-01-15T07:30:49.884Z,30.30
2019-01-15T07:31:28.672Z,30.30
2019-01-15T07:32:07.408Z,30.30
2019-01-15T07:32:46.075Z,30.30
2019-01-15T07:33:27.167Z,30.30
2019-01-15T07:34:05.880Z,30.30
2019-01-15T07:34:44.605Z,30.30
2019-01-15T07:35:23.294Z,30.30
2019-01-15T07:36:02.017Z,30.30
2019-01-15T07:36:40.714Z,30.30
2019-01-15T07:37:19.482Z,30.30
2019-01-15T07:37:58.234Z,30.30
2019-01-15T07:38:36.840Z,30.30
2019-01-15T07:39:15.591Z,30.30
2019-01-15T07:39:54.253Z,30.30
2019-01-15T07:40:32.955Z,30.30
2019-01-15T07:41:11.647Z,30.30
2019-01-15T07:41:50.309Z,30.30
2019-01-15T07:42:29.114Z,30.30
2019-01-15T07:43:07.775Z,30.30
2019-01-15T07:43:46.570Z,30.40
2019-01-15T07:44:25.364Z,30.40
2019-01-15T07:45:04.056Z,30.30
2019-01-15T07:45:42.696Z,30.40
2019-01-15T07:46:21.404Z,30.40
2019-01-15T07:47:00.098Z,30.30
2019-01-15T07:47:38.688Z,30.40
2019-01-15T07:48:17.413Z,30.40
2019-01-15T07:48:56.167Z,30.40
2019-01-15T07:49:34.875Z,30.40
2019-01-15T07:50:16.584Z,30.40
2019-01-15T07:50:55.253Z,30.40
2019-01-15T07:51:33.917Z,30.40
2019-01-15T07:52:12.568Z,30.40
2019-01-15T07:52:51.449Z,30.40
2019-01-15T07:53:30.176Z,30.40
2019-01-15T07:54:08.834Z,30.40
2019-01-15T07:54:47.566Z,30.40
2019-01-15T07:55:26.308Z,30.40
2019-01-15T07:56:04.934Z,30.40
2019-01-15T07:56:43.590Z,30.40
2019-01-15T07:57:22.326Z,30.40
2019-01-15T07:58:00.955Z,30.40
2019-01-15T07:58:39.574Z,30.40
2019-01-15T07:59:18.231Z,30.40
2019-01-15T07:59:56.986Z,30.40
2019-01-15T08:00:35.702Z,30.40
2019-01-15T08:01:14.613Z,30.40
2019-01-15T08:01:53.587Z,30.40
2019-01-15T08:02:32.284Z,30.40
2019-01-15T08:03:10.934Z,30.50
2019-01-15T08:03:49.691Z,30.40
2019-01-15T08:04:28.399Z,30.40
2019-01-15T08:05:07.079Z,30.40
2019-01-15T08:05:45.843Z,30.50
2019-01-15T08:06:24.665Z,30.50
2019-01-15T08:07:03.401Z,30.50
2019-01-15T08:07:42.037Z,30.40
2019-01-15T08:08:22.055Z,30.50
2019-01-15T08:09:00.721Z,30.50
2019-01-15T08:09:39.428Z,30.50
2019-01-15T08:10:19.151Z,30.50
2019-01-15T08:10:58.083Z,30.50
2019-01-15T08:11:36.736Z,30.50
2019-01-15T08:12:15.386Z,30.50
2019-01-15T08:12:54.141Z,30.50
2019-01-15T08:13:32.937Z,30.50
2019-01-15T08:14:12.125Z,30.50
2019-01-15T08:14:51.059Z,30.50
2019-01-15T08:15:29.992Z,30.50
2019-01-15T08:16:08.836Z,30.50
2019-01-15T08:16:47.502Z,30.50
2019-01-15T08:17:26.107Z,30.50
2019-01-15T08:18:04.841Z,30.50
2019-01-15T08:18:43.591Z,30.50
2019-01-15T08:19:22.327Z,30.50
2019-01-15T08:20:00.967Z,30.50
2019-01-15T08:20:39.701Z,30.50